sensor_id;sensor_type;location;lat;lon;timestamp;temperature;humidity
27544;DHT22;17996;51.056;3.656;2023-12-20T00:02:23;7.80;99.90
27544;DHT22;17996;51.056;3.656;2023-12-20T00:04:49;7.80;99.90
27544;DHT22;17996;51.056;3.656;2023-12-20T00:07:16;7.80;99.90
27544;DHT22;17996;51.056;3.656;2023-12-20T00:09:41;7.70;99.90
27544;DHT22;17996;51.056;3.656;2023-12-20T00:12:08;7.80;99.90
27544;DHT22;17996;51.056;3.656;2023-12-20T00:14:34;7.80;99.90
27544;DHT22;17996;51.056;3.656;2023-12-20T00:17:00;7.70;99.90
27544;DHT22;17996;51.056;3.656;2023-12-20T00:19:25;7.70;99.90
27544;DHT22;17996;51.056;3.656;2023-12-20T00:21:51;7.70;99.90
27544;DHT22;17996;51.056;3.656;2023-12-20T00:24:18;7.70;99.90
27544;DHT22;17996;51.056;3.656;2023-12-20T00:26:43;7.70;99.90
27544;DHT22;17996;51.056;3.656;2023-12-20T00:29:09;7.70;99.90
27544;DHT22;17996;51.056;3.656;2023-12-20T00:31:35;7.70;99.90
27544;DHT22;17996;51.056;3.656;2023-12-20T00:34:01;7.70;99.90
27544;DHT22;17996;51.056;3.656;2023-12-20T00:36:27;7.70;99.90
27544;DHT22;17996;51.056;3.656;2023-12-20T00:38:52;7.70;99.90
27544;DHT22;17996;51.056;3.656;2023-12-20T00:41:18;7.70;99.90
27544;DHT22;17996;51.056;3.656;2023-12-20T00:43:44;7.70;99.90
27544;DHT22;17996;51.056;3.656;2023-12-20T00:46:10;7.70;99.90
27544;DHT22;17996;51.056;3.656;2023-12-20T00:48:38;7.70;99.90
27544;DHT22;17996;51.056;3.656;2023-12-20T00:51:04;7.80;99.90
27544;DHT22;17996;51.056;3.656;2023-12-20T00:53:29;7.70;99.90
27544;DHT22;17996;51.056;3.656;2023-12-20T00:55:55;7.70;99.90
27544;DHT22;17996;51.056;3.656;2023-12-20T00:58:21;7.70;99.90
27544;DHT22;17996;51.056;3.656;2023-12-20T01:00:47;7.80;99.90
27544;DHT22;17996;51.056;3.656;2023-12-20T01:03:12;7.80;99.90
27544;DHT22;17996;51.056;3.656;2023-12-20T01:05:39;7.80;99.90
27544;DHT22;17996;51.056;3.656;2023-12-20T01:08:06;7.80;99.90
27544;DHT22;17996;51.056;3.656;2023-12-20T01:10:32;7.80;99.90
27544;DHT22;17996;51.056;3.656;2023-12-20T01:12:57;7.80;99.90
27544;DHT22;17996;51.056;3.656;2023-12-20T01:15:23;7.80;99.90
27544;DHT22;17996;51.056;3.656;2023-12-20T01:17:49;7.80;99.90
27544;DHT22;17996;51.056;3.656;2023-12-20T01:20:15;7.80;99.90
27544;DHT22;17996;51.056;3.656;2023-12-20T01:22:41;7.90;99.90
27544;DHT22;17996;51.056;3.656;2023-12-20T01:25:08;7.90;99.90
27544;DHT22;17996;51.056;3.656;2023-12-20T01:27:34;7.90;99.90
27544;DHT22;17996;51.056;3.656;2023-12-20T01:30:00;8.00;99.90
27544;DHT22;17996;51.056;3.656;2023-12-20T01:32:26;8.00;99.90
27544;DHT22;17996;51.056;3.656;2023-12-20T01:34:52;8.10;99.90
27544;DHT22;17996;51.056;3.656;2023-12-20T01:37:17;8.00;99.90
27544;DHT22;17996;51.056;3.656;2023-12-20T01:39:43;8.00;99.90
27544;DHT22;17996;51.056;3.656;2023-12-20T01:42:09;8.00;99.90
27544;DHT22;17996;51.056;3.656;2023-12-20T01:44:35;8.00;99.90
27544;DHT22;17996;51.056;3.656;2023-12-20T01:47:00;8.00;99.90
27544;DHT22;17996;51.056;3.656;2023-12-20T01:49:27;8.00;99.90
27544;DHT22;17996;51.056;3.656;2023-12-20T01:51:53;7.90;99.90
27544;DHT22;17996;51.056;3.656;2023-12-20T01:54:19;8.00;99.90
27544;DHT22;17996;51.056;3.656;2023-12-20T01:56:45;8.00;99.90
27544;DHT22;17996;51.056;3.656;2023-12-20T01:59:11;7.90;99.90
27544;DHT22;17996;51.056;3.656;2023-12-20T02:01:38;7.90;99.90
27544;DHT22;17996;51.056;3.656;2023-12-20T02:04:04;8.00;99.90
27544;DHT22;17996;51.056;3.656;2023-12-20T02:06:30;8.00;99.90
27544;DHT22;17996;51.056;3.656;2023-12-20T02:08:59;7.90;99.90
27544;DHT22;17996;51.056;3.656;2023-12-20T02:11:26;8.00;99.90
27544;DHT22;17996;51.056;3.656;2023-12-20T02:13:52;8.00;99.90
27544;DHT22;17996;51.056;3.656;2023-12-20T02:16:18;8.10;99.90
27544;DHT22;17996;51.056;3.656;2023-12-20T02:18:44;8.10;99.90
27544;DHT22;17996;51.056;3.656;2023-12-20T02:21:10;8.00;99.90
27544;DHT22;17996;51.056;3.656;2023-12-20T02:23:36;8.10;99.90
27544;DHT22;17996;51.056;3.656;2023-12-20T02:26:03;8.10;99.90
27544;DHT22;17996;51.056;3.656;2023-12-20T02:28:31;8.20;99.90
27544;DHT22;17996;51.056;3.656;2023-12-20T02:30:57;8.20;99.90
27544;DHT22;17996;51.056;3.656;2023-12-20T02:33:23;8.20;99.90
27544;DHT22;17996;51.056;3.656;2023-12-20T02:35:49;8.20;99.90
27544;DHT22;17996;51.056;3.656;2023-12-20T02:38:15;8.20;99.90
27544;DHT22;17996;51.056;3.656;2023-12-20T02:40:41;8.20;99.90
27544;DHT22;17996;51.056;3.656;2023-12-20T02:43:07;8.30;99.90
27544;DHT22;17996;51.056;3.656;2023-12-20T02:45:32;8.30;99.90
27544;DHT22;17996;51.056;3.656;2023-12-20T02:47:58;8.30;99.90
27544;DHT22;17996;51.056;3.656;2023-12-20T02:50:24;8.30;99.90
27544;DHT22;17996;51.056;3.656;2023-12-20T02:52:50;8.30;99.90
27544;DHT22;17996;51.056;3.656;2023-12-20T02:55:15;8.30;99.90
27544;DHT22;17996;51.056;3.656;2023-12-20T02:57:41;8.30;99.90
27544;DHT22;17996;51.056;3.656;2023-12-20T03:00:10;8.30;99.90
27544;DHT22;17996;51.056;3.656;2023-12-20T03:02:36;8.30;99.90
27544;DHT22;17996;51.056;3.656;2023-12-20T03:05:02;8.30;99.90
27544;DHT22;17996;51.056;3.656;2023-12-20T03:07:28;8.40;99.90
27544;DHT22;17996;51.056;3.656;2023-12-20T03:09:54;8.40;99.90
27544;DHT22;17996;51.056;3.656;2023-12-20T03:12:20;8.40;99.90
27544;DHT22;17996;51.056;3.656;2023-12-20T03:14:45;8.40;99.90
27544;DHT22;17996;51.056;3.656;2023-12-20T03:17:11;8.40;99.90
27544;DHT22;17996;51.056;3.656;2023-12-20T03:19:37;8.40;99.90
27544;DHT22;17996;51.056;3.656;2023-12-20T03:22:03;8.40;99.90
27544;DHT22;17996;51.056;3.656;2023-12-20T03:24:28;8.40;99.90
27544;DHT22;17996;51.056;3.656;2023-12-20T03:26:54;8.40;99.90
27544;DHT22;17996;51.056;3.656;2023-12-20T03:29:20;8.30;99.90
27544;DHT22;17996;51.056;3.656;2023-12-20T03:31:46;8.30;99.90
27544;DHT22;17996;51.056;3.656;2023-12-20T03:34:11;8.30;99.90
27544;DHT22;17996;51.056;3.656;2023-12-20T03:36:37;8.30;99.90
27544;DHT22;17996;51.056;3.656;2023-12-20T03:39:04;8.30;99.90
27544;DHT22;17996;51.056;3.656;2023-12-20T03:41:32;8.30;99.90
27544;DHT22;17996;51.056;3.656;2023-12-20T03:44:01;8.30;99.90
27544;DHT22;17996;51.056;3.656;2023-12-20T03:46:27;8.40;99.90
27544;DHT22;17996;51.056;3.656;2023-12-20T03:48:52;8.30;99.90
27544;DHT22;17996;51.056;3.656;2023-12-20T03:51:18;8.30;99.90
27544;DHT22;17996;51.056;3.656;2023-12-20T03:53:45;8.30;99.90
27544;DHT22;17996;51.056;3.656;2023-12-20T03:56:11;8.30;99.90
27544;DHT22;17996;51.056;3.656;2023-12-20T03:58:36;8.30;99.90
27544;DHT22;17996;51.056;3.656;2023-12-20T04:01:02;8.20;99.90
27544;DHT22;17996;51.056;3.656;2023-12-20T04:03:28;8.20;99.90
27544;DHT22;17996;51.056;3.656;2023-12-20T04:05:54;8.20;99.90
27544;DHT22;17996;51.056;3.656;2023-12-20T04:08:20;8.20;99.90
27544;DHT22;17996;51.056;3.656;2023-12-20T04:10:45;8.20;99.90
27544;DHT22;17996;51.056;3.656;2023-12-20T04:13:11;8.10;99.90
27544;DHT22;17996;51.056;3.656;2023-12-20T04:15:37;8.10;99.90
27544;DHT22;17996;51.056;3.656;2023-12-20T04:18:03;8.10;99.90
27544;DHT22;17996;51.056;3.656;2023-12-20T04:20:28;8.20;99.90
27544;DHT22;17996;51.056;3.656;2023-12-20T04:22:54;8.20;99.90
27544;DHT22;17996;51.056;3.656;2023-12-20T04:25:21;8.20;99.90
27544;DHT22;17996;51.056;3.656;2023-12-20T04:27:47;8.20;99.90
27544;DHT22;17996;51.056;3.656;2023-12-20T04:30:13;8.20;99.90
27544;DHT22;17996;51.056;3.656;2023-12-20T04:32:39;8.20;99.90
27544;DHT22;17996;51.056;3.656;2023-12-20T04:35:05;8.20;99.90
27544;DHT22;17996;51.056;3.656;2023-12-20T04:37:30;8.20;99.90
27544;DHT22;17996;51.056;3.656;2023-12-20T04:39:56;8.20;99.90
27544;DHT22;17996;51.056;3.656;2023-12-20T04:42:22;8.20;99.90
27544;DHT22;17996;51.056;3.656;2023-12-20T04:44:47;8.10;99.90
27544;DHT22;17996;51.056;3.656;2023-12-20T04:47:13;8.10;99.90
27544;DHT22;17996;51.056;3.656;2023-12-20T04:49:39;8.10;99.90
27544;DHT22;17996;51.056;3.656;2023-12-20T04:52:05;8.10;99.90
27544;DHT22;17996;51.056;3.656;2023-12-20T04:54:31;8.00;99.90
27544;DHT22;17996;51.056;3.656;2023-12-20T04:56:57;8.00;99.90
27544;DHT22;17996;51.056;3.656;2023-12-20T04:59:23;8.00;99.90
27544;DHT22;17996;51.056;3.656;2023-12-20T05:01:49;7.90;99.90
27544;DHT22;17996;51.056;3.656;2023-12-20T05:04:15;7.90;99.90
27544;DHT22;17996;51.056;3.656;2023-12-20T05:06:41;7.90;99.90
27544;DHT22;17996;51.056;3.656;2023-12-20T05:09:06;7.90;99.90
27544;DHT22;17996;51.056;3.656;2023-12-20T05:11:32;7.90;99.90
27544;DHT22;17996;51.056;3.656;2023-12-20T05:13:58;7.90;99.90
27544;DHT22;17996;51.056;3.656;2023-12-20T05:16:24;7.90;99.90
27544;DHT22;17996;51.056;3.656;2023-12-20T05:18:49;7.90;99.90
27544;DHT22;17996;51.056;3.656;2023-12-20T05:21:16;7.90;99.90
27544;DHT22;17996;51.056;3.656;2023-12-20T05:23:42;7.90;99.90
27544;DHT22;17996;51.056;3.656;2023-12-20T05:26:07;7.90;99.90
27544;DHT22;17996;51.056;3.656;2023-12-20T05:28:33;7.90;99.90
27544;DHT22;17996;51.056;3.656;2023-12-20T05:30:59;7.80;99.90
27544;DHT22;17996;51.056;3.656;2023-12-20T05:33:25;7.90;99.90
27544;DHT22;17996;51.056;3.656;2023-12-20T05:35:50;7.90;99.90
27544;DHT22;17996;51.056;3.656;2023-12-20T05:38:16;7.90;99.90
27544;DHT22;17996;51.056;3.656;2023-12-20T05:40:42;7.90;99.90
27544;DHT22;17996;51.056;3.656;2023-12-20T05:43:08;7.90;99.90
27544;DHT22;17996;51.056;3.656;2023-12-20T05:45:33;7.90;99.90
27544;DHT22;17996;51.056;3.656;2023-12-20T05:47:59;7.90;99.90
27544;DHT22;17996;51.056;3.656;2023-12-20T05:50:25;7.90;99.90
27544;DHT22;17996;51.056;3.656;2023-12-20T05:52:51;7.90;99.90
27544;DHT22;17996;51.056;3.656;2023-12-20T05:55:17;7.80;99.90
27544;DHT22;17996;51.056;3.656;2023-12-20T05:57:42;7.70;99.90
27544;DHT22;17996;51.056;3.656;2023-12-20T06:00:09;7.70;99.90
27544;DHT22;17996;51.056;3.656;2023-12-20T06:02:35;7.60;99.90
27544;DHT22;17996;51.056;3.656;2023-12-20T06:05:06;7.60;99.90
27544;DHT22;17996;51.056;3.656;2023-12-20T06:07:35;7.50;99.90
27544;DHT22;17996;51.056;3.656;2023-12-20T06:10:01;7.50;99.90
27544;DHT22;17996;51.056;3.656;2023-12-20T06:12:26;7.50;99.90
27544;DHT22;17996;51.056;3.656;2023-12-20T06:14:54;7.40;99.90
27544;DHT22;17996;51.056;3.656;2023-12-20T06:17:20;7.40;99.90
27544;DHT22;17996;51.056;3.656;2023-12-20T06:19:45;7.40;99.90
27544;DHT22;17996;51.056;3.656;2023-12-20T06:22:14;7.30;99.90
27544;DHT22;17996;51.056;3.656;2023-12-20T06:24:40;7.30;99.90
27544;DHT22;17996;51.056;3.656;2023-12-20T06:27:05;7.30;99.90
27544;DHT22;17996;51.056;3.656;2023-12-20T06:29:32;7.30;99.90
27544;DHT22;17996;51.056;3.656;2023-12-20T06:31:58;7.30;99.90
27544;DHT22;17996;51.056;3.656;2023-12-20T06:34:24;7.30;99.90
27544;DHT22;17996;51.056;3.656;2023-12-20T06:36:49;7.30;99.90
27544;DHT22;17996;51.056;3.656;2023-12-20T06:39:15;7.30;99.90
27544;DHT22;17996;51.056;3.656;2023-12-20T06:41:41;7.30;99.90
27544;DHT22;17996;51.056;3.656;2023-12-20T06:44:08;7.20;99.90
27544;DHT22;17996;51.056;3.656;2023-12-20T06:46:37;7.20;99.90
27544;DHT22;17996;51.056;3.656;2023-12-20T06:49:02;7.20;99.90
27544;DHT22;17996;51.056;3.656;2023-12-20T06:51:29;7.10;99.90
27544;DHT22;17996;51.056;3.656;2023-12-20T06:53:56;7.20;99.90
27544;DHT22;17996;51.056;3.656;2023-12-20T06:56:22;7.10;99.90
27544;DHT22;17996;51.056;3.656;2023-12-20T06:58:48;7.10;99.90
27544;DHT22;17996;51.056;3.656;2023-12-20T07:01:15;7.10;99.90
27544;DHT22;17996;51.056;3.656;2023-12-20T07:03:41;7.10;99.90
27544;DHT22;17996;51.056;3.656;2023-12-20T07:06:08;7.10;99.90
27544;DHT22;17996;51.056;3.656;2023-12-20T07:08:34;7.10;99.90
27544;DHT22;17996;51.056;3.656;2023-12-20T07:11:00;7.10;99.90
27544;DHT22;17996;51.056;3.656;2023-12-20T07:13:26;7.10;99.90
27544;DHT22;17996;51.056;3.656;2023-12-20T07:15:51;7.10;99.90
27544;DHT22;17996;51.056;3.656;2023-12-20T07:18:17;7.00;99.90
27544;DHT22;17996;51.056;3.656;2023-12-20T07:20:43;7.10;99.90
27544;DHT22;17996;51.056;3.656;2023-12-20T07:23:09;7.00;99.90
27544;DHT22;17996;51.056;3.656;2023-12-20T07:25:35;7.00;99.90
27544;DHT22;17996;51.056;3.656;2023-12-20T07:28:00;7.00;99.90
27544;DHT22;17996;51.056;3.656;2023-12-20T07:30:26;7.00;99.90
27544;DHT22;17996;51.056;3.656;2023-12-20T07:32:52;7.00;99.90
27544;DHT22;17996;51.056;3.656;2023-12-20T07:35:18;7.00;99.90
27544;DHT22;17996;51.056;3.656;2023-12-20T07:37:44;6.90;99.90
27544;DHT22;17996;51.056;3.656;2023-12-20T07:40:10;6.90;99.90
27544;DHT22;17996;51.056;3.656;2023-12-20T07:42:36;6.90;99.90
27544;DHT22;17996;51.056;3.656;2023-12-20T07:45:02;6.90;99.90
27544;DHT22;17996;51.056;3.656;2023-12-20T07:47:28;6.90;99.90
27544;DHT22;17996;51.056;3.656;2023-12-20T07:49:55;7.00;99.90
27544;DHT22;17996;51.056;3.656;2023-12-20T07:52:21;7.00;99.90
27544;DHT22;17996;51.056;3.656;2023-12-20T07:54:49;7.00;99.90
27544;DHT22;17996;51.056;3.656;2023-12-20T07:57:16;7.00;99.90
27544;DHT22;17996;51.056;3.656;2023-12-20T07:59:43;7.00;99.90
27544;DHT22;17996;51.056;3.656;2023-12-20T08:02:10;7.00;99.90
27544;DHT22;17996;51.056;3.656;2023-12-20T08:04:35;7.00;99.90
27544;DHT22;17996;51.056;3.656;2023-12-20T08:07:01;7.00;99.90
27544;DHT22;17996;51.056;3.656;2023-12-20T08:09:27;7.00;99.90
27544;DHT22;17996;51.056;3.656;2023-12-20T08:11:53;6.90;99.90
27544;DHT22;17996;51.056;3.656;2023-12-20T08:14:20;7.00;99.90
27544;DHT22;17996;51.056;3.656;2023-12-20T08:16:45;6.90;99.90
27544;DHT22;17996;51.056;3.656;2023-12-20T08:19:11;6.90;99.90
27544;DHT22;17996;51.056;3.656;2023-12-20T08:21:40;6.90;99.90
27544;DHT22;17996;51.056;3.656;2023-12-20T08:24:06;6.90;99.90
27544;DHT22;17996;51.056;3.656;2023-12-20T08:26:33;6.90;99.90
27544;DHT22;17996;51.056;3.656;2023-12-20T08:29:01;7.00;99.90
27544;DHT22;17996;51.056;3.656;2023-12-20T08:31:30;7.00;99.90
27544;DHT22;17996;51.056;3.656;2023-12-20T08:33:56;7.00;99.90
27544;DHT22;17996;51.056;3.656;2023-12-20T08:36:22;7.00;99.90
27544;DHT22;17996;51.056;3.656;2023-12-20T08:38:51;7.00;99.90
27544;DHT22;17996;51.056;3.656;2023-12-20T08:41:17;7.00;99.90
27544;DHT22;17996;51.056;3.656;2023-12-20T08:43:44;7.00;99.90
27544;DHT22;17996;51.056;3.656;2023-12-20T08:46:11;7.10;99.90
27544;DHT22;17996;51.056;3.656;2023-12-20T08:48:37;7.10;99.90
27544;DHT22;17996;51.056;3.656;2023-12-20T08:51:04;7.10;99.90
27544;DHT22;17996;51.056;3.656;2023-12-20T08:53:29;7.10;99.90
27544;DHT22;17996;51.056;3.656;2023-12-20T08:55:58;7.10;99.90
27544;DHT22;17996;51.056;3.656;2023-12-20T08:58:27;7.20;99.90
27544;DHT22;17996;51.056;3.656;2023-12-20T09:00:54;7.30;99.90
27544;DHT22;17996;51.056;3.656;2023-12-20T09:03:21;7.30;99.90
27544;DHT22;17996;51.056;3.656;2023-12-20T09:05:46;7.40;99.90
27544;DHT22;17996;51.056;3.656;2023-12-20T09:08:12;7.50;99.90
27544;DHT22;17996;51.056;3.656;2023-12-20T09:10:39;7.70;99.90
27544;DHT22;17996;51.056;3.656;2023-12-20T09:13:05;7.80;99.90
27544;DHT22;17996;51.056;3.656;2023-12-20T09:15:30;7.90;99.90
27544;DHT22;17996;51.056;3.656;2023-12-20T09:17:56;7.90;99.90
27544;DHT22;17996;51.056;3.656;2023-12-20T09:20:22;8.00;99.90
27544;DHT22;17996;51.056;3.656;2023-12-20T09:22:49;8.10;99.90
27544;DHT22;17996;51.056;3.656;2023-12-20T09:25:14;8.00;99.90
27544;DHT22;17996;51.056;3.656;2023-12-20T09:27:41;8.00;99.90
27544;DHT22;17996;51.056;3.656;2023-12-20T09:30:07;8.00;99.90
27544;DHT22;17996;51.056;3.656;2023-12-20T09:32:33;8.10;99.90
27544;DHT22;17996;51.056;3.656;2023-12-20T09:34:59;8.10;99.90
27544;DHT22;17996;51.056;3.656;2023-12-20T09:37:28;8.00;99.90
27544;DHT22;17996;51.056;3.656;2023-12-20T09:39:54;8.00;99.90
27544;DHT22;17996;51.056;3.656;2023-12-20T09:42:39;8.10;99.90
27544;DHT22;17996;51.056;3.656;2023-12-20T09:45:13;8.20;99.90
27544;DHT22;17996;51.056;3.656;2023-12-20T09:47:40;8.30;99.90
27544;DHT22;17996;51.056;3.656;2023-12-20T09:50:07;8.40;99.90
27544;DHT22;17996;51.056;3.656;2023-12-20T09:52:34;8.40;99.90
27544;DHT22;17996;51.056;3.656;2023-12-20T09:55:01;8.50;99.90
27544;DHT22;17996;51.056;3.656;2023-12-20T09:57:31;8.50;99.90
27544;DHT22;17996;51.056;3.656;2023-12-20T09:59:57;8.60;99.90
27544;DHT22;17996;51.056;3.656;2023-12-20T10:02:25;8.60;99.90
27544;DHT22;17996;51.056;3.656;2023-12-20T10:04:54;8.70;99.90
27544;DHT22;17996;51.056;3.656;2023-12-20T10:07:19;8.70;99.90
27544;DHT22;17996;51.056;3.656;2023-12-20T10:09:47;8.80;99.90
27544;DHT22;17996;51.056;3.656;2023-12-20T10:12:12;8.80;99.90
27544;DHT22;17996;51.056;3.656;2023-12-20T10:14:41;8.80;99.90
27544;DHT22;17996;51.056;3.656;2023-12-20T10:17:07;8.80;99.90
27544;DHT22;17996;51.056;3.656;2023-12-20T10:19:33;8.90;99.90
27544;DHT22;17996;51.056;3.656;2023-12-20T10:21:59;8.90;99.90
27544;DHT22;17996;51.056;3.656;2023-12-20T10:24:25;8.90;99.90
27544;DHT22;17996;51.056;3.656;2023-12-20T10:27:07;8.90;99.90
27544;DHT22;17996;51.056;3.656;2023-12-20T10:29:37;9.00;99.90
27544;DHT22;17996;51.056;3.656;2023-12-20T10:32:23;9.00;99.90
27544;DHT22;17996;51.056;3.656;2023-12-20T10:34:53;9.00;99.90
27544;DHT22;17996;51.056;3.656;2023-12-20T10:37:19;9.00;99.90
27544;DHT22;17996;51.056;3.656;2023-12-20T10:39:50;9.00;99.90
27544;DHT22;17996;51.056;3.656;2023-12-20T10:42:16;9.00;99.90
27544;DHT22;17996;51.056;3.656;2023-12-20T10:44:43;9.10;99.90
27544;DHT22;17996;51.056;3.656;2023-12-20T10:47:11;9.10;99.90
27544;DHT22;17996;51.056;3.656;2023-12-20T10:49:39;9.10;99.90
27544;DHT22;17996;51.056;3.656;2023-12-20T10:52:06;9.10;99.90
27544;DHT22;17996;51.056;3.656;2023-12-20T10:54:33;9.10;99.90
27544;DHT22;17996;51.056;3.656;2023-12-20T10:57:00;9.10;99.90
27544;DHT22;17996;51.056;3.656;2023-12-20T10:59:27;9.20;99.90
27544;DHT22;17996;51.056;3.656;2023-12-20T11:01:56;9.20;99.90
27544;DHT22;17996;51.056;3.656;2023-12-20T11:04:40;9.20;99.90
27544;DHT22;17996;51.056;3.656;2023-12-20T11:07:15;9.40;99.90
27544;DHT22;17996;51.056;3.656;2023-12-20T11:09:49;9.40;99.90
27544;DHT22;17996;51.056;3.656;2023-12-20T11:12:39;9.40;99.90
27544;DHT22;17996;51.056;3.656;2023-12-20T11:15:07;9.40;99.90
27544;DHT22;17996;51.056;3.656;2023-12-20T11:17:33;9.40;99.90
27544;DHT22;17996;51.056;3.656;2023-12-20T11:22:29;9.50;99.90
27544;DHT22;17996;51.056;3.656;2023-12-20T11:25:05;9.50;99.90
27544;DHT22;17996;51.056;3.656;2023-12-20T11:27:34;9.60;99.90
27544;DHT22;17996;51.056;3.656;2023-12-20T11:30:04;9.70;99.90
27544;DHT22;17996;51.056;3.656;2023-12-20T11:32:36;9.70;99.90
27544;DHT22;17996;51.056;3.656;2023-12-20T11:37:38;9.70;99.90
27544;DHT22;17996;51.056;3.656;2023-12-20T11:40:11;9.70;99.90
27544;DHT22;17996;51.056;3.656;2023-12-20T11:42:41;9.70;99.90
27544;DHT22;17996;51.056;3.656;2023-12-20T11:45:11;9.70;99.90
27544;DHT22;17996;51.056;3.656;2023-12-20T11:47:37;9.70;99.90
27544;DHT22;17996;51.056;3.656;2023-12-20T11:50:04;9.70;99.90
27544;DHT22;17996;51.056;3.656;2023-12-20T11:52:30;9.70;99.90
27544;DHT22;17996;51.056;3.656;2023-12-20T11:54:57;9.80;99.90
27544;DHT22;17996;51.056;3.656;2023-12-20T11:57:22;9.80;99.90
27544;DHT22;17996;51.056;3.656;2023-12-20T11:59:48;9.70;99.90
27544;DHT22;17996;51.056;3.656;2023-12-20T12:02:14;9.70;99.90
27544;DHT22;17996;51.056;3.656;2023-12-20T12:04:43;9.70;99.90
27544;DHT22;17996;51.056;3.656;2023-12-20T12:07:09;9.70;99.90
27544;DHT22;17996;51.056;3.656;2023-12-20T12:09:35;9.80;99.90
27544;DHT22;17996;51.056;3.656;2023-12-20T12:12:02;9.70;99.90
27544;DHT22;17996;51.056;3.656;2023-12-20T12:14:28;9.70;99.90
27544;DHT22;17996;51.056;3.656;2023-12-20T12:16:54;9.80;99.90
27544;DHT22;17996;51.056;3.656;2023-12-20T12:19:21;9.80;99.90
27544;DHT22;17996;51.056;3.656;2023-12-20T12:21:47;9.80;99.90
27544;DHT22;17996;51.056;3.656;2023-12-20T12:24:13;9.80;99.90
27544;DHT22;17996;51.056;3.656;2023-12-20T12:26:38;9.90;99.90
27544;DHT22;17996;51.056;3.656;2023-12-20T12:29:07;9.90;99.90
27544;DHT22;17996;51.056;3.656;2023-12-20T12:31:33;9.90;99.90
27544;DHT22;17996;51.056;3.656;2023-12-20T12:33:59;9.90;99.90
27544;DHT22;17996;51.056;3.656;2023-12-20T12:36:24;10.00;99.90
27544;DHT22;17996;51.056;3.656;2023-12-20T12:38:50;10.00;99.90
27544;DHT22;17996;51.056;3.656;2023-12-20T12:41:16;10.10;99.90
27544;DHT22;17996;51.056;3.656;2023-12-20T12:43:41;10.20;99.90
27544;DHT22;17996;51.056;3.656;2023-12-20T12:46:07;10.30;99.90
27544;DHT22;17996;51.056;3.656;2023-12-20T12:48:33;10.30;99.90
27544;DHT22;17996;51.056;3.656;2023-12-20T12:50:59;10.40;99.90
27544;DHT22;17996;51.056;3.656;2023-12-20T12:53:25;10.40;99.90
27544;DHT22;17996;51.056;3.656;2023-12-20T12:55:52;10.40;99.90
27544;DHT22;17996;51.056;3.656;2023-12-20T12:58:19;10.40;99.90
27544;DHT22;17996;51.056;3.656;2023-12-20T13:00:45;10.40;99.90
27544;DHT22;17996;51.056;3.656;2023-12-20T13:03:10;10.50;99.90
27544;DHT22;17996;51.056;3.656;2023-12-20T13:05:36;10.50;99.90
27544;DHT22;17996;51.056;3.656;2023-12-20T13:08:03;10.50;99.90
27544;DHT22;17996;51.056;3.656;2023-12-20T13:10:29;10.50;99.90
27544;DHT22;17996;51.056;3.656;2023-12-20T13:12:55;10.50;99.90
27544;DHT22;17996;51.056;3.656;2023-12-20T13:15:20;10.50;99.90
27544;DHT22;17996;51.056;3.656;2023-12-20T13:17:46;10.50;99.90
27544;DHT22;17996;51.056;3.656;2023-12-20T13:20:12;10.50;99.90
27544;DHT22;17996;51.056;3.656;2023-12-20T13:22:37;10.50;99.90
27544;DHT22;17996;51.056;3.656;2023-12-20T13:25:03;10.50;99.90
27544;DHT22;17996;51.056;3.656;2023-12-20T13:27:29;10.50;99.90
27544;DHT22;17996;51.056;3.656;2023-12-20T13:29:55;10.50;99.90
27544;DHT22;17996;51.056;3.656;2023-12-20T13:32:20;10.50;99.90
27544;DHT22;17996;51.056;3.656;2023-12-20T13:34:46;10.40;99.90
27544;DHT22;17996;51.056;3.656;2023-12-20T13:37:12;10.40;99.90
27544;DHT22;17996;51.056;3.656;2023-12-20T13:39:38;10.40;99.90
27544;DHT22;17996;51.056;3.656;2023-12-20T13:42:05;10.40;99.90
27544;DHT22;17996;51.056;3.656;2023-12-20T13:44:30;10.30;99.90
27544;DHT22;17996;51.056;3.656;2023-12-20T13:46:56;10.40;99.90
27544;DHT22;17996;51.056;3.656;2023-12-20T13:49:22;10.40;99.90
27544;DHT22;17996;51.056;3.656;2023-12-20T13:51:51;10.40;99.90
27544;DHT22;17996;51.056;3.656;2023-12-20T13:54:16;10.40;99.90
27544;DHT22;17996;51.056;3.656;2023-12-20T13:56:45;10.40;99.90
27544;DHT22;17996;51.056;3.656;2023-12-20T13:59:11;10.40;99.90
27544;DHT22;17996;51.056;3.656;2023-12-20T14:01:38;10.30;99.90
27544;DHT22;17996;51.056;3.656;2023-12-20T14:04:04;10.40;99.90
27544;DHT22;17996;51.056;3.656;2023-12-20T14:06:29;10.30;99.90
27544;DHT22;17996;51.056;3.656;2023-12-20T14:08:55;10.30;99.90
27544;DHT22;17996;51.056;3.656;2023-12-20T14:11:21;10.30;99.90
27544;DHT22;17996;51.056;3.656;2023-12-20T14:13:47;10.40;99.90
27544;DHT22;17996;51.056;3.656;2023-12-20T14:16:13;10.40;99.90
27544;DHT22;17996;51.056;3.656;2023-12-20T14:18:39;10.40;99.90
27544;DHT22;17996;51.056;3.656;2023-12-20T14:21:05;10.40;99.90
27544;DHT22;17996;51.056;3.656;2023-12-20T14:23:31;10.40;99.90
27544;DHT22;17996;51.056;3.656;2023-12-20T14:25:59;10.40;99.90
27544;DHT22;17996;51.056;3.656;2023-12-20T14:28:25;10.50;99.90
27544;DHT22;17996;51.056;3.656;2023-12-20T14:30:51;10.40;99.90
27544;DHT22;17996;51.056;3.656;2023-12-20T14:33:17;10.40;99.90
27544;DHT22;17996;51.056;3.656;2023-12-20T14:35:42;10.50;99.90
27544;DHT22;17996;51.056;3.656;2023-12-20T14:38:10;10.50;99.90
27544;DHT22;17996;51.056;3.656;2023-12-20T14:40:35;10.40;99.90
27544;DHT22;17996;51.056;3.656;2023-12-20T14:43:01;10.50;99.90
27544;DHT22;17996;51.056;3.656;2023-12-20T14:45:29;10.40;99.90
27544;DHT22;17996;51.056;3.656;2023-12-20T14:47:55;10.50;99.90
27544;DHT22;17996;51.056;3.656;2023-12-20T14:50:21;10.50;99.90
27544;DHT22;17996;51.056;3.656;2023-12-20T14:52:47;10.50;99.90
27544;DHT22;17996;51.056;3.656;2023-12-20T14:55:13;10.50;99.90
27544;DHT22;17996;51.056;3.656;2023-12-20T14:57:39;10.50;99.90
27544;DHT22;17996;51.056;3.656;2023-12-20T15:00:05;10.40;99.90
27544;DHT22;17996;51.056;3.656;2023-12-20T15:02:31;10.40;99.90
27544;DHT22;17996;51.056;3.656;2023-12-20T15:04:57;10.40;99.90
27544;DHT22;17996;51.056;3.656;2023-12-20T15:07:22;10.40;99.90
27544;DHT22;17996;51.056;3.656;2023-12-20T15:09:48;10.40;99.90
27544;DHT22;17996;51.056;3.656;2023-12-20T15:12:14;10.40;99.90
27544;DHT22;17996;51.056;3.656;2023-12-20T15:14:40;10.30;99.90
27544;DHT22;17996;51.056;3.656;2023-12-20T15:17:06;10.30;99.90
27544;DHT22;17996;51.056;3.656;2023-12-20T15:19:32;10.40;99.90
27544;DHT22;17996;51.056;3.656;2023-12-20T15:21:58;10.40;99.90
27544;DHT22;17996;51.056;3.656;2023-12-20T15:24:25;10.40;99.90
27544;DHT22;17996;51.056;3.656;2023-12-20T15:27:03;10.30;99.90
27544;DHT22;17996;51.056;3.656;2023-12-20T15:29:28;10.30;99.90
27544;DHT22;17996;51.056;3.656;2023-12-20T15:31:54;10.30;99.90
27544;DHT22;17996;51.056;3.656;2023-12-20T15:34:20;10.30;99.90
27544;DHT22;17996;51.056;3.656;2023-12-20T15:36:46;10.30;99.90
27544;DHT22;17996;51.056;3.656;2023-12-20T15:39:11;10.30;99.90
27544;DHT22;17996;51.056;3.656;2023-12-20T15:41:40;10.30;99.90
27544;DHT22;17996;51.056;3.656;2023-12-20T15:44:05;10.30;99.90